Aviation Digital Data Service (ADDS)

Output produced by METARs form (0008 UTC 22 September 2021)
found at http://aviationweather.gov/metar/data/
 
METAR text: LEMD 220000Z 03005KT 350V060 9999 FEW045CB BKN060 16/07 Q1023 NOSIG
Conditions at: LEMD (MADRID/BARAJAS , ES) observed 0000 UTC 22 September 2021
Temperature: 16.0°C (61°F)
Dewpoint: 7.0°C (45°F) [RH = 55%]
Pressure (altimeter): 30.21 inches Hg (1023.0 mb)
Winds: from the NNE (30 degrees) at 6 MPH (5 knots; 2.6 m/s)
Visibility: 6 or more miles (10+ km)
Ceiling: 6000 feet AGL
Clouds: few clouds at 4500 feet AGL
broken clouds at 6000 feet AGL
Weather: no significant weather observed at this time

METAR text: LEMD 212330Z 03005KT 010V070 9999 FEW055CB SCT065 16/07 Q1023 NOSIG
Conditions at: LEMD (MADRID/BARAJAS , ES) observed 2330 UTC 21 September 2021
Temperature: 16.0°C (61°F)
Dewpoint: 7.0°C (45°F) [RH = 55%]
Pressure (altimeter): 30.21 inches Hg (1023.0 mb)
Winds: from the NNE (30 degrees) at 6 MPH (5 knots; 2.6 m/s)
Visibility: 6 or more miles (10+ km)
Ceiling: at least 12,000 feet AGL
Clouds: few clouds at 5500 feet AGL
scattered clouds at 6500 feet AGL
Weather: no significant weather observed at this time

METAR text: LEMD 212300Z 02005KT 010V070 9999 FEW055 SCT065 16/07 Q1023 NOSIG
Conditions at: LEMD (MADRID/BARAJAS , ES) observed 2300 UTC 21 September 2021
Temperature: 16.0°C (61°F)
Dewpoint: 7.0°C (45°F) [RH = 55%]
Pressure (altimeter): 30.21 inches Hg (1023.0 mb)
Winds: from the NNE (20 degrees) at 6 MPH (5 knots; 2.6 m/s)
Visibility: 6 or more miles (10+ km)
Ceiling: at least 12,000 feet AGL
Clouds: few clouds at 5500 feet AGL
scattered clouds at 6500 feet AGL
Weather: no significant weather observed at this time

METAR text: LEMD 212230Z 01006KT 9999 SCT070 16/07 Q1023 NOSIG
Conditions at: LEMD (MADRID/BARAJAS , ES) observed 2230 UTC 21 September 2021
Temperature: 16.0°C (61°F)
Dewpoint: 7.0°C (45°F) [RH = 55%]
Pressure (altimeter): 30.21 inches Hg (1023.0 mb)
Winds: from the N (10 degrees) at 7 MPH (6 knots; 3.1 m/s)
Visibility: 6 or more miles (10+ km)
Ceiling: at least 12,000 feet AGL
Clouds: scattered clouds at 7000 feet AGL
Weather: no significant weather observed at this time

Forecast for: AMD
Text: TAF AMD LEMD 212337Z 2200/2306 02010KT CAVOK TX23/2215Z TN12/2306Z
Forecast period: 0000 UTC 22 September 2021 to 0600 UTC 23 September 2021
Forecast type: FROM: standard forecast or significant change
Winds: from the NNE (20 degrees) at 12 MPH (10 knots; 5.1 m/s)
Visibility: 6 or more miles (10+ km)
Ceiling: unknown
Clouds: missing
Weather: no significant weather forecast for this period
Text: TEMPO 2200/2204 FEW050CB
Forecast period: 0000 to 0400 UTC 22 September 2021
Forecast type: TEMPORARY: The following changes expected for less than half the time period
Visibility: missing
Ceiling: at least 12,000 feet AGL
Clouds: few clouds at 5000 feet AGL
Weather: no significant weather forecast for this period
Text: TEMPO 2212/2223 VRB05KT
Forecast period: 1200 to 2300 UTC 22 September 2021
Forecast type: TEMPORARY: The following changes expected for less than half the time period
Winds: variable direction winds at 6 MPH (5 knots; 2.6 m/s)
Visibility: missing
Ceiling: unknown
Clouds: missing
Weather: no significant weather forecast for this period
Text: PROB30
Forecast period: 1200 to 2100 UTC 22 September 2021
Forecast type: TEMPORARY: The following changes expected for less than half the time period
Visibility: missing
Ceiling: at least 12,000 feet AGL
Clouds: scattered clouds at 3500 feet AGL
Weather: RA SHRA  (moderate rain, rain showers)
Text: TEMPO 2212/2221 RA SHRA SCT035TCU
Forecast period: 1400 to 1900 UTC 22 September 2021
Forecast type: TEMPORARY: The following changes expected for less than half the time period
Visibility: missing
Ceiling: at least 12,000 feet AGL
Clouds: scattered clouds at 3000 feet AGL
Weather: no significant weather forecast for this period